sensor_id;sensor_type;location;lat;lon;timestamp;P1;durP1;ratioP1;P2;durP2;ratioP2
3341;SDS011;1684;50.748;6.154;2023-11-21T00:00:25;14.57;;;8.07;;
3341;SDS011;1684;50.748;6.154;2023-11-21T00:02:53;10.07;;;6.43;;
3341;SDS011;1684;50.748;6.154;2023-11-21T00:05:22;15.70;;;7.90;;
3341;SDS011;1684;50.748;6.154;2023-11-21T00:07:50;14.63;;;7.70;;
3341;SDS011;1684;50.748;6.154;2023-11-21T00:10:20;12.80;;;5.80;;
3341;SDS011;1684;50.748;6.154;2023-11-21T00:12:48;15.00;;;9.00;;
3341;SDS011;1684;50.748;6.154;2023-11-21T00:15:16;16.37;;;8.53;;
3341;SDS011;1684;50.748;6.154;2023-11-21T00:17:45;15.00;;;7.90;;
3341;SDS011;1684;50.748;6.154;2023-11-21T00:20:13;15.20;;;7.70;;
3341;SDS011;1684;50.748;6.154;2023-11-21T00:22:42;14.60;;;8.43;;
3341;SDS011;1684;50.748;6.154;2023-11-21T00:25:10;13.13;;;7.20;;
3341;SDS011;1684;50.748;6.154;2023-11-21T00:27:42;16.20;;;8.97;;
3341;SDS011;1684;50.748;6.154;2023-11-21T00:30:11;13.40;;;7.40;;
3341;SDS011;1684;50.748;6.154;2023-11-21T00:32:40;19.93;;;9.70;;
3341;SDS011;1684;50.748;6.154;2023-11-21T00:35:08;15.43;;;8.27;;
3341;SDS011;1684;50.748;6.154;2023-11-21T00:37:37;20.13;;;8.40;;
3341;SDS011;1684;50.748;6.154;2023-11-21T00:40:06;13.97;;;8.20;;
3341;SDS011;1684;50.748;6.154;2023-11-21T00:42:35;13.80;;;8.03;;
3341;SDS011;1684;50.748;6.154;2023-11-21T00:45:05;14.40;;;8.03;;
3341;SDS011;1684;50.748;6.154;2023-11-21T00:47:34;17.70;;;9.10;;
3341;SDS011;1684;50.748;6.154;2023-11-21T00:50:04;15.37;;;8.70;;
3341;SDS011;1684;50.748;6.154;2023-11-21T00:52:33;13.57;;;7.60;;
3341;SDS011;1684;50.748;6.154;2023-11-21T00:55:02;16.57;;;9.77;;
3341;SDS011;1684;50.748;6.154;2023-11-21T00:57:30;9.73;;;4.63;;
3341;SDS011;1684;50.748;6.154;2023-11-21T00:59:59;14.87;;;8.07;;
3341;SDS011;1684;50.748;6.154;2023-11-21T01:02:28;15.67;;;10.20;;
3341;SDS011;1684;50.748;6.154;2023-11-21T01:04:57;16.77;;;8.97;;
3341;SDS011;1684;50.748;6.154;2023-11-21T01:07:25;20.27;;;8.17;;
3341;SDS011;1684;50.748;6.154;2023-11-21T01:09:53;18.60;;;10.30;;
3341;SDS011;1684;50.748;6.154;2023-11-21T01:12:22;18.07;;;8.60;;
3341;SDS011;1684;50.748;6.154;2023-11-21T01:14:51;18.03;;;9.83;;
3341;SDS011;1684;50.748;6.154;2023-11-21T01:17:20;21.50;;;10.63;;
3341;SDS011;1684;50.748;6.154;2023-11-21T01:19:51;14.60;;;8.30;;
3341;SDS011;1684;50.748;6.154;2023-11-21T01:22:19;16.37;;;9.80;;
3341;SDS011;1684;50.748;6.154;2023-11-21T01:24:52;21.20;;;10.90;;
3341;SDS011;1684;50.748;6.154;2023-11-21T01:27:21;21.77;;;10.50;;
3341;SDS011;1684;50.748;6.154;2023-11-21T01:29:49;18.47;;;10.00;;
3341;SDS011;1684;50.748;6.154;2023-11-21T01:32:19;15.80;;;9.17;;
3341;SDS011;1684;50.748;6.154;2023-11-21T01:34:49;20.47;;;9.97;;
3341;SDS011;1684;50.748;6.154;2023-11-21T01:37:19;21.53;;;10.70;;
3341;SDS011;1684;50.748;6.154;2023-11-21T01:39:48;21.00;;;10.87;;
3341;SDS011;1684;50.748;6.154;2023-11-21T01:42:16;22.67;;;10.57;;
3341;SDS011;1684;50.748;6.154;2023-11-21T01:44:44;18.50;;;9.80;;
3341;SDS011;1684;50.748;6.154;2023-11-21T01:47:13;17.40;;;11.90;;
3341;SDS011;1684;50.748;6.154;2023-11-21T01:49:43;17.83;;;10.20;;
3341;SDS011;1684;50.748;6.154;2023-11-21T01:52:11;19.03;;;10.47;;
3341;SDS011;1684;50.748;6.154;2023-11-21T01:54:43;21.37;;;12.03;;
3341;SDS011;1684;50.748;6.154;2023-11-21T01:57:11;21.87;;;11.13;;
3341;SDS011;1684;50.748;6.154;2023-11-21T01:59:42;21.13;;;10.70;;
3341;SDS011;1684;50.748;6.154;2023-11-21T02:02:10;20.40;;;10.83;;
3341;SDS011;1684;50.748;6.154;2023-11-21T02:04:39;19.57;;;10.60;;
3341;SDS011;1684;50.748;6.154;2023-11-21T02:07:08;18.87;;;10.40;;
3341;SDS011;1684;50.748;6.154;2023-11-21T02:09:36;20.80;;;12.33;;
3341;SDS011;1684;50.748;6.154;2023-11-21T02:12:09;18.50;;;11.50;;
3341;SDS011;1684;50.748;6.154;2023-11-21T02:14:38;22.43;;;11.57;;
3341;SDS011;1684;50.748;6.154;2023-11-21T02:17:06;21.90;;;11.50;;
3341;SDS011;1684;50.748;6.154;2023-11-21T02:19:34;21.40;;;11.67;;
3341;SDS011;1684;50.748;6.154;2023-11-21T02:22:03;21.67;;;12.23;;
3341;SDS011;1684;50.748;6.154;2023-11-21T02:24:34;28.47;;;14.40;;
3341;SDS011;1684;50.748;6.154;2023-11-21T02:27:03;22.47;;;11.30;;
3341;SDS011;1684;50.748;6.154;2023-11-21T02:29:32;28.20;;;12.70;;
3341;SDS011;1684;50.748;6.154;2023-11-21T02:32:00;33.33;;;14.80;;
3341;SDS011;1684;50.748;6.154;2023-11-21T02:34:30;26.00;;;12.97;;
3341;SDS011;1684;50.748;6.154;2023-11-21T02:36:58;32.97;;;14.50;;
3341;SDS011;1684;50.748;6.154;2023-11-21T02:39:26;20.37;;;11.27;;
3341;SDS011;1684;50.748;6.154;2023-11-21T02:41:56;17.50;;;10.70;;
3341;SDS011;1684;50.748;6.154;2023-11-21T02:44:24;28.23;;;13.80;;
3341;SDS011;1684;50.748;6.154;2023-11-21T02:46:52;22.93;;;12.30;;
3341;SDS011;1684;50.748;6.154;2023-11-21T02:49:21;23.93;;;12.90;;
3341;SDS011;1684;50.748;6.154;2023-11-21T02:51:49;26.53;;;13.93;;
3341;SDS011;1684;50.748;6.154;2023-11-21T02:54:17;26.43;;;12.63;;
3341;SDS011;1684;50.748;6.154;2023-11-21T02:56:48;23.40;;;12.17;;
3341;SDS011;1684;50.748;6.154;2023-11-21T02:59:18;25.23;;;12.90;;
3341;SDS011;1684;50.748;6.154;2023-11-21T03:01:46;25.87;;;12.80;;
3341;SDS011;1684;50.748;6.154;2023-11-21T03:04:16;20.00;;;11.77;;
3341;SDS011;1684;50.748;6.154;2023-11-21T03:06:44;24.40;;;12.47;;
3341;SDS011;1684;50.748;6.154;2023-11-21T03:09:12;22.80;;;12.57;;
3341;SDS011;1684;50.748;6.154;2023-11-21T03:11:42;27.87;;;12.37;;
3341;SDS011;1684;50.748;6.154;2023-11-21T03:14:11;24.27;;;12.90;;
3341;SDS011;1684;50.748;6.154;2023-11-21T03:16:40;21.10;;;11.10;;
3341;SDS011;1684;50.748;6.154;2023-11-21T03:19:08;23.30;;;12.70;;
3341;SDS011;1684;50.748;6.154;2023-11-21T03:21:37;20.50;;;11.53;;
3341;SDS011;1684;50.748;6.154;2023-11-21T03:24:05;24.37;;;11.50;;
3341;SDS011;1684;50.748;6.154;2023-11-21T03:26:34;19.10;;;10.80;;
3341;SDS011;1684;50.748;6.154;2023-11-21T03:29:03;23.57;;;12.20;;
3341;SDS011;1684;50.748;6.154;2023-11-21T03:31:32;21.70;;;11.10;;
3341;SDS011;1684;50.748;6.154;2023-11-21T03:34:01;20.03;;;10.70;;
3341;SDS011;1684;50.748;6.154;2023-11-21T03:36:30;21.50;;;10.87;;
3341;SDS011;1684;50.748;6.154;2023-11-21T03:38:58;18.90;;;10.30;;
3341;SDS011;1684;50.748;6.154;2023-11-21T03:41:26;21.07;;;11.70;;
3341;SDS011;1684;50.748;6.154;2023-11-21T03:43:54;25.10;;;11.97;;
3341;SDS011;1684;50.748;6.154;2023-11-21T03:46:23;18.80;;;10.37;;
3341;SDS011;1684;50.748;6.154;2023-11-21T03:48:51;21.27;;;10.33;;
3341;SDS011;1684;50.748;6.154;2023-11-21T03:51:23;18.40;;;9.90;;
3341;SDS011;1684;50.748;6.154;2023-11-21T03:53:51;18.57;;;10.10;;
3341;SDS011;1684;50.748;6.154;2023-11-21T03:56:19;17.37;;;9.60;;
3341;SDS011;1684;50.748;6.154;2023-11-21T03:58:48;20.23;;;11.47;;
3341;SDS011;1684;50.748;6.154;2023-11-21T04:01:20;18.50;;;9.30;;
3341;SDS011;1684;50.748;6.154;2023-11-21T04:03:49;23.77;;;11.27;;
3341;SDS011;1684;50.748;6.154;2023-11-21T04:06:17;25.37;;;12.07;;
3341;SDS011;1684;50.748;6.154;2023-11-21T04:08:47;28.83;;;12.77;;
3341;SDS011;1684;50.748;6.154;2023-11-21T04:11:15;26.93;;;11.30;;
3341;SDS011;1684;50.748;6.154;2023-11-21T04:13:42;20.13;;;10.90;;
3341;SDS011;1684;50.748;6.154;2023-11-21T04:16:13;20.40;;;11.27;;
3341;SDS011;1684;50.748;6.154;2023-11-21T04:18:41;23.10;;;11.43;;
3341;SDS011;1684;50.748;6.154;2023-11-21T04:21:09;24.00;;;12.90;;
3341;SDS011;1684;50.748;6.154;2023-11-21T04:23:38;22.87;;;11.27;;
3341;SDS011;1684;50.748;6.154;2023-11-21T04:26:08;20.03;;;12.20;;
3341;SDS011;1684;50.748;6.154;2023-11-21T04:28:36;19.50;;;10.93;;
3341;SDS011;1684;50.748;6.154;2023-11-21T04:31:05;22.97;;;9.97;;
3341;SDS011;1684;50.748;6.154;2023-11-21T04:33:33;22.20;;;11.20;;
3341;SDS011;1684;50.748;6.154;2023-11-21T04:36:01;27.80;;;14.70;;
3341;SDS011;1684;50.748;6.154;2023-11-21T04:38:30;25.47;;;11.90;;
3341;SDS011;1684;50.748;6.154;2023-11-21T04:40:59;26.50;;;12.63;;
3341;SDS011;1684;50.748;6.154;2023-11-21T04:43:30;24.40;;;11.70;;
3341;SDS011;1684;50.748;6.154;2023-11-21T04:45:58;28.70;;;12.20;;
3341;SDS011;1684;50.748;6.154;2023-11-21T04:48:28;26.67;;;11.73;;
3341;SDS011;1684;50.748;6.154;2023-11-21T04:50:56;26.40;;;13.93;;
3341;SDS011;1684;50.748;6.154;2023-11-21T04:53:25;23.70;;;12.63;;
3341;SDS011;1684;50.748;6.154;2023-11-21T04:55:53;27.63;;;13.60;;
3341;SDS011;1684;50.748;6.154;2023-11-21T04:58:21;20.53;;;10.37;;
3341;SDS011;1684;50.748;6.154;2023-11-21T05:00:51;23.13;;;12.07;;
3341;SDS011;1684;50.748;6.154;2023-11-21T05:03:19;29.97;;;15.73;;
3341;SDS011;1684;50.748;6.154;2023-11-21T05:05:50;27.83;;;12.83;;
3341;SDS011;1684;50.748;6.154;2023-11-21T05:08:18;21.30;;;11.63;;
3341;SDS011;1684;50.748;6.154;2023-11-21T05:10:48;23.13;;;12.67;;
3341;SDS011;1684;50.748;6.154;2023-11-21T05:13:17;31.13;;;13.70;;
3341;SDS011;1684;50.748;6.154;2023-11-21T05:15:46;25.00;;;12.57;;
3341;SDS011;1684;50.748;6.154;2023-11-21T05:18:16;30.07;;;14.03;;
3341;SDS011;1684;50.748;6.154;2023-11-21T05:20:44;29.73;;;14.07;;
3341;SDS011;1684;50.748;6.154;2023-11-21T05:23:13;26.03;;;13.57;;
3341;SDS011;1684;50.748;6.154;2023-11-21T05:25:41;31.67;;;14.20;;
3341;SDS011;1684;50.748;6.154;2023-11-21T05:28:10;22.50;;;12.30;;
3341;SDS011;1684;50.748;6.154;2023-11-21T05:30:38;27.87;;;13.30;;
3341;SDS011;1684;50.748;6.154;2023-11-21T05:33:07;24.87;;;13.20;;
3341;SDS011;1684;50.748;6.154;2023-11-21T05:35:36;28.03;;;13.67;;
3341;SDS011;1684;50.748;6.154;2023-11-21T05:38:05;23.53;;;12.53;;
3341;SDS011;1684;50.748;6.154;2023-11-21T05:40:33;23.40;;;13.40;;
3341;SDS011;1684;50.748;6.154;2023-11-21T05:43:03;30.17;;;12.77;;
3341;SDS011;1684;50.748;6.154;2023-11-21T05:45:32;30.47;;;13.53;;
3341;SDS011;1684;50.748;6.154;2023-11-21T05:48:01;25.03;;;12.70;;
3341;SDS011;1684;50.748;6.154;2023-11-21T05:50:30;29.30;;;14.43;;
3341;SDS011;1684;50.748;6.154;2023-11-21T05:53:00;27.23;;;14.57;;
3341;SDS011;1684;50.748;6.154;2023-11-21T05:55:28;26.73;;;13.50;;
3341;SDS011;1684;50.748;6.154;2023-11-21T05:57:57;25.80;;;12.67;;
3341;SDS011;1684;50.748;6.154;2023-11-21T06:00:25;29.10;;;12.53;;
3341;SDS011;1684;50.748;6.154;2023-11-21T06:02:54;35.80;;;15.17;;
3341;SDS011;1684;50.748;6.154;2023-11-21T06:05:24;33.27;;;15.90;;
3341;SDS011;1684;50.748;6.154;2023-11-21T06:07:53;27.23;;;14.13;;
3341;SDS011;1684;50.748;6.154;2023-11-21T06:10:24;29.70;;;14.17;;
3341;SDS011;1684;50.748;6.154;2023-11-21T06:12:52;26.57;;;13.00;;
3341;SDS011;1684;50.748;6.154;2023-11-21T06:15:21;31.23;;;15.00;;
3341;SDS011;1684;50.748;6.154;2023-11-21T06:17:50;31.93;;;15.27;;
3341;SDS011;1684;50.748;6.154;2023-11-21T06:20:20;31.13;;;14.03;;
3341;SDS011;1684;50.748;6.154;2023-11-21T06:22:49;28.10;;;13.20;;
3341;SDS011;1684;50.748;6.154;2023-11-21T06:25:18;34.23;;;14.87;;
3341;SDS011;1684;50.748;6.154;2023-11-21T06:27:48;35.47;;;15.87;;
3341;SDS011;1684;50.748;6.154;2023-11-21T06:30:17;31.70;;;15.07;;
3341;SDS011;1684;50.748;6.154;2023-11-21T06:32:46;32.70;;;13.53;;
3341;SDS011;1684;50.748;6.154;2023-11-21T06:35:15;28.83;;;11.87;;
3341;SDS011;1684;50.748;6.154;2023-11-21T06:37:43;34.80;;;13.80;;
3341;SDS011;1684;50.748;6.154;2023-11-21T06:40:15;32.03;;;17.43;;
3341;SDS011;1684;50.748;6.154;2023-11-21T06:42:44;30.40;;;14.90;;
3341;SDS011;1684;50.748;6.154;2023-11-21T06:45:14;32.07;;;15.80;;
3341;SDS011;1684;50.748;6.154;2023-11-21T06:47:43;31.87;;;15.10;;
3341;SDS011;1684;50.748;6.154;2023-11-21T06:50:12;34.67;;;16.43;;
3341;SDS011;1684;50.748;6.154;2023-11-21T06:52:40;35.00;;;14.90;;
3341;SDS011;1684;50.748;6.154;2023-11-21T06:55:09;28.33;;;12.87;;
3341;SDS011;1684;50.748;6.154;2023-11-21T06:57:37;30.23;;;14.63;;
3341;SDS011;1684;50.748;6.154;2023-11-21T07:00:06;38.30;;;16.20;;
3341;SDS011;1684;50.748;6.154;2023-11-21T07:02:37;36.63;;;19.10;;
3341;SDS011;1684;50.748;6.154;2023-11-21T07:05:06;37.70;;;15.47;;
3341;SDS011;1684;50.748;6.154;2023-11-21T07:07:34;30.53;;;15.37;;
3341;SDS011;1684;50.748;6.154;2023-11-21T07:10:04;44.30;;;19.97;;
3341;SDS011;1684;50.748;6.154;2023-11-21T07:12:32;39.63;;;17.27;;
3341;SDS011;1684;50.748;6.154;2023-11-21T07:15:01;36.80;;;16.50;;
3341;SDS011;1684;50.748;6.154;2023-11-21T07:17:31;38.27;;;16.03;;
3341;SDS011;1684;50.748;6.154;2023-11-21T07:20:05;37.27;;;16.90;;
3341;SDS011;1684;50.748;6.154;2023-11-21T07:22:34;37.20;;;17.03;;
3341;SDS011;1684;50.748;6.154;2023-11-21T07:25:03;43.03;;;18.47;;
3341;SDS011;1684;50.748;6.154;2023-11-21T07:27:31;39.97;;;17.40;;
3341;SDS011;1684;50.748;6.154;2023-11-21T07:30:01;48.77;;;19.40;;
3341;SDS011;1684;50.748;6.154;2023-11-21T07:32:32;38.40;;;17.70;;
3341;SDS011;1684;50.748;6.154;2023-11-21T07:35:00;41.80;;;20.67;;
3341;SDS011;1684;50.748;6.154;2023-11-21T07:37:30;34.50;;;16.10;;
3341;SDS011;1684;50.748;6.154;2023-11-21T07:39:59;43.87;;;19.30;;
3341;SDS011;1684;50.748;6.154;2023-11-21T07:42:27;40.40;;;16.83;;
3341;SDS011;1684;50.748;6.154;2023-11-21T07:44:55;45.47;;;19.70;;
3341;SDS011;1684;50.748;6.154;2023-11-21T07:47:23;37.53;;;17.50;;
3341;SDS011;1684;50.748;6.154;2023-11-21T07:49:53;42.23;;;18.90;;
3341;SDS011;1684;50.748;6.154;2023-11-21T07:52:23;38.97;;;19.33;;
3341;SDS011;1684;50.748;6.154;2023-11-21T07:54:52;46.43;;;19.27;;
3341;SDS011;1684;50.748;6.154;2023-11-21T07:57:21;35.00;;;16.90;;
3341;SDS011;1684;50.748;6.154;2023-11-21T07:59:49;52.03;;;19.63;;
3341;SDS011;1684;50.748;6.154;2023-11-21T08:02:20;45.63;;;20.23;;
3341;SDS011;1684;50.748;6.154;2023-11-21T08:04:48;39.17;;;17.63;;
3341;SDS011;1684;50.748;6.154;2023-11-21T08:07:17;42.53;;;19.00;;
3341;SDS011;1684;50.748;6.154;2023-11-21T08:09:45;36.60;;;16.70;;
3341;SDS011;1684;50.748;6.154;2023-11-21T08:12:17;34.77;;;16.33;;
3341;SDS011;1684;50.748;6.154;2023-11-21T08:14:46;45.50;;;18.63;;
3341;SDS011;1684;50.748;6.154;2023-11-21T08:17:15;32.90;;;13.27;;
3341;SDS011;1684;50.748;6.154;2023-11-21T08:19:44;46.40;;;18.87;;
3341;SDS011;1684;50.748;6.154;2023-11-21T08:22:15;42.07;;;18.70;;
3341;SDS011;1684;50.748;6.154;2023-11-21T08:24:44;52.73;;;22.83;;
3341;SDS011;1684;50.748;6.154;2023-11-21T08:27:13;44.53;;;19.30;;
3341;SDS011;1684;50.748;6.154;2023-11-21T08:29:43;47.63;;;18.47;;
3341;SDS011;1684;50.748;6.154;2023-11-21T08:32:12;44.10;;;18.37;;
3341;SDS011;1684;50.748;6.154;2023-11-21T08:34:41;52.07;;;22.10;;
3341;SDS011;1684;50.748;6.154;2023-11-21T08:37:11;52.20;;;20.27;;
3341;SDS011;1684;50.748;6.154;2023-11-21T08:39:39;53.83;;;20.63;;
3341;SDS011;1684;50.748;6.154;2023-11-21T08:42:08;43.50;;;21.47;;
3341;SDS011;1684;50.748;6.154;2023-11-21T08:44:36;44.67;;;18.23;;
3341;SDS011;1684;50.748;6.154;2023-11-21T08:47:06;44.83;;;19.77;;
3341;SDS011;1684;50.748;6.154;2023-11-21T08:49:34;54.97;;;23.77;;
3341;SDS011;1684;50.748;6.154;2023-11-21T08:52:04;49.80;;;20.60;;
3341;SDS011;1684;50.748;6.154;2023-11-21T08:54:32;46.33;;;19.83;;
3341;SDS011;1684;50.748;6.154;2023-11-21T08:57:01;51.17;;;21.70;;
3341;SDS011;1684;50.748;6.154;2023-11-21T08:59:30;46.73;;;22.50;;
3341;SDS011;1684;50.748;6.154;2023-11-21T09:01:58;50.37;;;21.67;;
3341;SDS011;1684;50.748;6.154;2023-11-21T09:04:28;63.93;;;24.90;;
3341;SDS011;1684;50.748;6.154;2023-11-21T09:06:56;54.67;;;19.17;;
3341;SDS011;1684;50.748;6.154;2023-11-21T09:09:26;49.10;;;19.53;;
3341;SDS011;1684;50.748;6.154;2023-11-21T09:11:56;44.57;;;19.13;;
3341;SDS011;1684;50.748;6.154;2023-11-21T09:14:26;41.70;;;18.43;;
3341;SDS011;1684;50.748;6.154;2023-11-21T09:16:55;52.30;;;19.27;;
3341;SDS011;1684;50.748;6.154;2023-11-21T09:19:23;50.47;;;19.53;;
3341;SDS011;1684;50.748;6.154;2023-11-21T09:21:53;50.43;;;20.10;;
3341;SDS011;1684;50.748;6.154;2023-11-21T09:24:23;60.50;;;23.10;;
3341;SDS011;1684;50.748;6.154;2023-11-21T09:26:52;48.70;;;20.20;;
3341;SDS011;1684;50.748;6.154;2023-11-21T09:29:20;43.47;;;19.00;;
3341;SDS011;1684;50.748;6.154;2023-11-21T09:31:48;51.70;;;20.00;;
3341;SDS011;1684;50.748;6.154;2023-11-21T09:34:18;47.10;;;17.30;;
3341;SDS011;1684;50.748;6.154;2023-11-21T09:36:46;32.27;;;14.40;;
3341;SDS011;1684;50.748;6.154;2023-11-21T09:39:17;51.93;;;19.00;;
3341;SDS011;1684;50.748;6.154;2023-11-21T09:41:46;41.90;;;20.40;;
3341;SDS011;1684;50.748;6.154;2023-11-21T09:44:17;57.37;;;20.70;;
3341;SDS011;1684;50.748;6.154;2023-11-21T09:46:47;48.73;;;18.00;;
3341;SDS011;1684;50.748;6.154;2023-11-21T09:49:17;54.37;;;20.83;;
3341;SDS011;1684;50.748;6.154;2023-11-21T09:51:46;52.43;;;17.63;;
3341;SDS011;1684;50.748;6.154;2023-11-21T09:54:15;56.77;;;20.50;;
3341;SDS011;1684;50.748;6.154;2023-11-21T09:56:47;51.70;;;19.87;;
3341;SDS011;1684;50.748;6.154;2023-11-21T09:59:16;47.43;;;16.03;;
3341;SDS011;1684;50.748;6.154;2023-11-21T10:01:45;40.00;;;15.70;;
3341;SDS011;1684;50.748;6.154;2023-11-21T10:04:13;84.13;;;20.37;;
3341;SDS011;1684;50.748;6.154;2023-11-21T10:06:43;51.07;;;18.37;;
3341;SDS011;1684;50.748;6.154;2023-11-21T10:09:13;34.57;;;13.20;;
3341;SDS011;1684;50.748;6.154;2023-11-21T10:11:42;44.90;;;18.40;;
3341;SDS011;1684;50.748;6.154;2023-11-21T10:14:12;49.50;;;17.47;;
3341;SDS011;1684;50.748;6.154;2023-11-21T10:16:41;47.40;;;16.63;;
3341;SDS011;1684;50.748;6.154;2023-11-21T10:19:10;51.53;;;19.37;;
3341;SDS011;1684;50.748;6.154;2023-11-21T10:21:42;23.50;;;12.13;;
3341;SDS011;1684;50.748;6.154;2023-11-21T10:24:10;31.10;;;14.60;;
3341;SDS011;1684;50.748;6.154;2023-11-21T10:26:39;40.00;;;16.13;;
3341;SDS011;1684;50.748;6.154;2023-11-21T10:29:19;34.37;;;15.57;;
3341;SDS011;1684;50.748;6.154;2023-11-21T10:31:49;48.70;;;15.93;;
3341;SDS011;1684;50.748;6.154;2023-11-21T10:34:19;37.00;;;14.30;;
3341;SDS011;1684;50.748;6.154;2023-11-21T10:36:48;27.93;;;11.10;;
3341;SDS011;1684;50.748;6.154;2023-11-21T10:39:16;32.23;;;13.20;;
3341;SDS011;1684;50.748;6.154;2023-11-21T10:41:45;31.63;;;11.13;;
3341;SDS011;1684;50.748;6.154;2023-11-21T10:44:14;31.03;;;11.83;;
3341;SDS011;1684;50.748;6.154;2023-11-21T10:46:50;38.10;;;13.53;;
3341;SDS011;1684;50.748;6.154;2023-11-21T10:49:22;37.50;;;13.00;;
3341;SDS011;1684;50.748;6.154;2023-11-21T10:51:52;31.73;;;10.73;;
3341;SDS011;1684;50.748;6.154;2023-11-21T10:54:21;19.13;;;8.93;;
3341;SDS011;1684;50.748;6.154;2023-11-21T10:56:50;27.87;;;10.50;;
3341;SDS011;1684;50.748;6.154;2023-11-21T10:59:18;27.57;;;11.07;;
3341;SDS011;1684;50.748;6.154;2023-11-21T11:01:52;32.10;;;9.83;;
3341;SDS011;1684;50.748;6.154;2023-11-21T11:04:21;24.10;;;11.40;;
3341;SDS011;1684;50.748;6.154;2023-11-21T11:06:56;26.90;;;11.27;;
3341;SDS011;1684;50.748;6.154;2023-11-21T11:09:27;36.23;;;14.20;;
3341;SDS011;1684;50.748;6.154;2023-11-21T11:11:56;27.43;;;10.87;;
3341;SDS011;1684;50.748;6.154;2023-11-21T11:14:25;29.60;;;11.70;;
3341;SDS011;1684;50.748;6.154;2023-11-21T11:16:55;34.07;;;12.50;;
3341;SDS011;1684;50.748;6.154;2023-11-21T11:19:25;28.67;;;12.10;;
3341;SDS011;1684;50.748;6.154;2023-11-21T11:21:57;24.80;;;11.53;;
3341;SDS011;1684;50.748;6.154;2023-11-21T11:24:36;25.87;;;10.03;;
3341;SDS011;1684;50.748;6.154;2023-11-21T11:27:11;21.70;;;7.80;;
3341;SDS011;1684;50.748;6.154;2023-11-21T11:29:46;24.33;;;12.47;;
3341;SDS011;1684;50.748;6.154;2023-11-21T11:32:21;30.00;;;10.83;;
3341;SDS011;1684;50.748;6.154;2023-11-21T11:34:52;24.53;;;10.97;;
3341;SDS011;1684;50.748;6.154;2023-11-21T11:37:22;23.10;;;11.13;;
3341;SDS011;1684;50.748;6.154;2023-11-21T11:39:50;25.87;;;10.27;;
3341;SDS011;1684;50.748;6.154;2023-11-21T11:42:21;27.57;;;12.97;;
3341;SDS011;1684;50.748;6.154;2023-11-21T11:44:51;34.37;;;14.00;;
3341;SDS011;1684;50.748;6.154;2023-11-21T11:47:27;30.03;;;10.83;;
3341;SDS011;1684;50.748;6.154;2023-11-21T11:50:02;26.73;;;11.70;;
3341;SDS011;1684;50.748;6.154;2023-11-21T11:52:34;26.07;;;10.10;;
3341;SDS011;1684;50.748;6.154;2023-11-21T11:55:02;26.53;;;11.63;;
3341;SDS011;1684;50.748;6.154;2023-11-21T11:57:31;25.97;;;10.97;;
3341;SDS011;1684;50.748;6.154;2023-11-21T12:00:09;28.37;;;12.17;;
3341;SDS011;1684;50.748;6.154;2023-11-21T12:02:39;31.97;;;12.33;;
3341;SDS011;1684;50.748;6.154;2023-11-21T12:05:08;29.33;;;12.23;;
3341;SDS011;1684;50.748;6.154;2023-11-21T12:07:44;25.53;;;11.07;;
3341;SDS011;1684;50.748;6.154;2023-11-21T12:10:13;31.80;;;10.50;;
3341;SDS011;1684;50.748;6.154;2023-11-21T12:12:47;22.10;;;10.70;;
3341;SDS011;1684;50.748;6.154;2023-11-21T12:15:15;23.93;;;10.70;;
3341;SDS011;1684;50.748;6.154;2023-11-21T12:17:46;25.03;;;11.80;;
3341;SDS011;1684;50.748;6.154;2023-11-21T12:20:15;25.20;;;12.57;;
3341;SDS011;1684;50.748;6.154;2023-11-21T12:22:45;36.83;;;13.70;;
3341;SDS011;1684;50.748;6.154;2023-11-21T12:25:17;29.27;;;9.63;;
3341;SDS011;1684;50.748;6.154;2023-11-21T12:27:46;32.13;;;11.97;;
3341;SDS011;1684;50.748;6.154;2023-11-21T12:30:16;27.17;;;11.60;;
3341;SDS011;1684;50.748;6.154;2023-11-21T12:32:47;24.53;;;10.20;;
3341;SDS011;1684;50.748;6.154;2023-11-21T12:35:16;25.47;;;10.67;;
3341;SDS011;1684;50.748;6.154;2023-11-21T12:37:45;31.13;;;12.03;;
3341;SDS011;1684;50.748;6.154;2023-11-21T12:40:14;30.50;;;11.30;;
3341;SDS011;1684;50.748;6.154;2023-11-21T12:42:44;23.87;;;9.30;;
3341;SDS011;1684;50.748;6.154;2023-11-21T12:45:21;27.67;;;12.37;;
3341;SDS011;1684;50.748;6.154;2023-11-21T12:47:54;23.73;;;10.07;;
3341;SDS011;1684;50.748;6.154;2023-11-21T12:50:24;17.73;;;8.47;;
3341;SDS011;1684;50.748;6.154;2023-11-21T12:52:58;19.90;;;9.07;;
3341;SDS011;1684;50.748;6.154;2023-11-21T12:55:29;20.20;;;7.93;;
3341;SDS011;1684;50.748;6.154;2023-11-21T12:57:57;23.40;;;10.40;;
3341;SDS011;1684;50.748;6.154;2023-11-21T13:00:32;19.60;;;9.80;;
3341;SDS011;1684;50.748;6.154;2023-11-21T13:03:05;21.00;;;7.90;;
3341;SDS011;1684;50.748;6.154;2023-11-21T13:05:34;21.63;;;8.87;;
3341;SDS011;1684;50.748;6.154;2023-11-21T13:08:05;21.23;;;8.00;;
3341;SDS011;1684;50.748;6.154;2023-11-21T13:10:36;20.83;;;9.10;;
3341;SDS011;1684;50.748;6.154;2023-11-21T13:13:05;20.17;;;8.90;;
3341;SDS011;1684;50.748;6.154;2023-11-21T13:15:38;26.83;;;8.73;;
3341;SDS011;1684;50.748;6.154;2023-11-21T13:18:08;20.10;;;8.70;;
3341;SDS011;1684;50.748;6.154;2023-11-21T13:20:37;22.40;;;9.00;;
3341;SDS011;1684;50.748;6.154;2023-11-21T13:23:07;21.07;;;8.63;;
3341;SDS011;1684;50.748;6.154;2023-11-21T13:25:38;27.03;;;9.77;;
3341;SDS011;1684;50.748;6.154;2023-11-21T13:28:08;17.63;;;7.70;;
3341;SDS011;1684;50.748;6.154;2023-11-21T13:30:37;16.10;;;7.43;;
3341;SDS011;1684;50.748;6.154;2023-11-21T13:33:07;17.57;;;8.53;;
3341;SDS011;1684;50.748;6.154;2023-11-21T13:35:45;18.27;;;6.80;;
3341;SDS011;1684;50.748;6.154;2023-11-21T13:38:17;23.03;;;9.70;;
3341;SDS011;1684;50.748;6.154;2023-11-21T13:40:49;21.23;;;7.27;;
3341;SDS011;1684;50.748;6.154;2023-11-21T13:43:20;18.20;;;8.13;;
3341;SDS011;1684;50.748;6.154;2023-11-21T13:45:51;22.23;;;9.03;;
3341;SDS011;1684;50.748;6.154;2023-11-21T13:48:28;18.83;;;9.13;;
3341;SDS011;1684;50.748;6.154;2023-11-21T13:51:06;13.57;;;7.07;;
3341;SDS011;1684;50.748;6.154;2023-11-21T13:53:42;20.93;;;7.20;;
3341;SDS011;1684;50.748;6.154;2023-11-21T13:56:10;17.93;;;7.80;;
3341;SDS011;1684;50.748;6.154;2023-11-21T13:58:42;19.93;;;7.17;;
3341;SDS011;1684;50.748;6.154;2023-11-21T14:01:16;19.70;;;7.80;;
3341;SDS011;1684;50.748;6.154;2023-11-21T14:04:09;19.00;;;8.27;;
3341;SDS011;1684;50.748;6.154;2023-11-21T14:06:45;14.43;;;7.07;;
3341;SDS011;1684;50.748;6.154;2023-11-21T14:09:16;15.27;;;7.70;;
3341;SDS011;1684;50.748;6.154;2023-11-21T14:11:49;22.10;;;8.00;;
3341;SDS011;1684;50.748;6.154;2023-11-21T14:14:19;17.00;;;7.70;;
3341;SDS011;1684;50.748;6.154;2023-11-21T14:16:48;15.30;;;7.53;;
3341;SDS011;1684;50.748;6.154;2023-11-21T14:19:18;21.30;;;7.50;;
3341;SDS011;1684;50.748;6.154;2023-11-21T14:21:47;17.03;;;6.93;;
3341;SDS011;1684;50.748;6.154;2023-11-21T14:24:16;18.93;;;8.60;;
3341;SDS011;1684;50.748;6.154;2023-11-21T14:26:45;17.53;;;10.43;;
3341;SDS011;1684;50.748;6.154;2023-11-21T14:29:14;18.47;;;8.90;;
3341;SDS011;1684;50.748;6.154;2023-11-21T14:31:46;17.10;;;10.20;;
3341;SDS011;1684;50.748;6.154;2023-11-21T14:34:15;20.23;;;8.07;;
3341;SDS011;1684;50.748;6.154;2023-11-21T14:36:49;16.83;;;9.57;;
3341;SDS011;1684;50.748;6.154;2023-11-21T14:39:18;22.43;;;7.80;;
3341;SDS011;1684;50.748;6.154;2023-11-21T14:41:50;28.13;;;9.53;;
3341;SDS011;1684;50.748;6.154;2023-11-21T14:44:19;18.17;;;8.60;;
3341;SDS011;1684;50.748;6.154;2023-11-21T14:46:52;22.97;;;9.07;;
3341;SDS011;1684;50.748;6.154;2023-11-21T14:49:24;20.33;;;9.07;;
3341;SDS011;1684;50.748;6.154;2023-11-21T14:51:58;18.07;;;9.40;;
3341;SDS011;1684;50.748;6.154;2023-11-21T14:54:27;18.40;;;8.23;;
3341;SDS011;1684;50.748;6.154;2023-11-21T14:57:08;18.07;;;8.93;;
3341;SDS011;1684;50.748;6.154;2023-11-21T14:59:43;16.60;;;9.13;;
3341;SDS011;1684;50.748;6.154;2023-11-21T15:02:13;19.13;;;9.53;;
3341;SDS011;1684;50.748;6.154;2023-11-21T15:04:41;19.73;;;9.40;;